Time;durP1;ratioP1;P1;durP2;ratioP2;P2;SDS_P1;SDS_P2;PMS_P1;PMS_P2;Temp;Humidity;BMP_temperature;BMP_pressure;BME280_temperature;BME280_humidity;BME280_pressure;Samples;Min_cycle;Max_cycle;Signal;HPM_P1;HPM_P2
2022/12/27 00:00:44;;;;;;;9.13;8.73;;;;;;;1.73;100.00;101076.69;5011444;28;20061;-71
2022/12/27 00:03:10;;;;;;;9.15;8.75;;;;;;;1.75;100.00;101068.72;5012403;28;20105;-70
2022/12/27 00:05:35;;;;;;;9.10;8.70;;;;;;;1.76;100.00;101055.53;5012878;28;20037;-70
2022/12/27 00:08:01;;;;;;;9.57;9.07;;;;;;;1.81;100.00;101061.28;5011293;28;20064;-70
2022/12/27 00:10:26;;;;;;;9.30;8.90;;;;;;;2.10;100.00;101061.06;5010473;28;20113;-70
2022/12/27 00:12:52;;;;;;;9.18;8.77;;;;;;;1.93;100.00;101063.06;5010632;28;20026;-70
2022/12/27 00:15:18;;;;;;;8.90;8.50;;;;;;;1.87;100.00;101049.56;5012454;28;20029;-70
2022/12/27 00:17:44;;;;;;;9.18;8.77;;;;;;;2.09;100.00;101056.78;5012412;28;20022;-69
2022/12/27 00:20:10;;;;;;;9.43;8.93;;;;;;;1.97;100.00;101042.75;5012388;28;20030;-70
2022/12/27 00:22:35;;;;;;;9.40;8.93;;;;;;;2.02;100.00;101056.38;5011489;28;20045;-69
2022/12/27 00:25:01;;;;;;;9.43;8.95;;;;;;;2.08;100.00;101049.88;5010499;28;20022;-69
2022/12/27 00:27:26;;;;;;;8.95;8.55;;;;;;;1.98;100.00;101059.28;5008161;28;20374;-69
2022/12/27 00:29:52;;;;;;;8.98;8.57;;;;;;;1.96;100.00;101059.41;5012062;28;20045;-69
2022/12/27 00:32:17;;;;;;;9.52;9.02;;;;;;;2.25;100.00;101051.28;5011863;28;20386;-70
2022/12/27 00:34:43;;;;;;;9.20;8.80;;;;;;;1.98;100.00;101049.66;5011889;28;20030;-69
2022/12/27 00:37:08;;;;;;;9.20;8.80;;;;;;;1.77;100.00;101059.00;5012051;28;20133;-69
2022/12/27 00:39:34;;;;;;;9.10;8.70;;;;;;;2.00;100.00;101068.72;5010846;28;20018;-70
2022/12/27 00:41:59;;;;;;;9.20;8.80;;;;;;;2.13;100.00;101068.69;5011926;28;20041;-69
2022/12/27 00:44:25;;;;;;;8.80;8.40;;;;;;;2.04;100.00;101064.94;5011170;28;20539;-69
2022/12/27 00:46:50;;;;;;;8.93;8.52;;;;;;;2.05;100.00;101065.78;5011983;28;20026;-69
2022/12/27 00:49:16;;;;;;;9.55;9.05;;;;;;;1.94;100.00;101064.75;5012357;28;20377;-70
2022/12/27 00:51:41;;;;;;;9.68;9.18;;;;;;;2.20;100.00;101052.47;5011751;28;20595;-71
2022/12/27 00:54:07;;;;;;;9.10;8.70;;;;;;;1.92;100.00;101055.34;5009517;28;20068;-68
2022/12/27 00:56:33;;;;;;;9.18;8.77;;;;;;;1.94;100.00;101050.81;5015929;28;20405;-69
2022/12/27 00:59:01;;;;;;;8.95;8.55;;;;;;;2.11;100.00;101050.47;5016001;28;20084;-69
2022/12/27 01:01:29;;;;;;;9.13;8.73;;;;;;;2.19;100.00;101044.69;5013074;28;20040;-69
2022/12/27 01:03:56;;;;;;;9.18;8.77;;;;;;;1.79;100.00;101044.03;5013533;28;20033;-70
2022/12/27 01:06:24;;;;;;;9.30;8.80;;;;;;;1.80;100.00;101043.09;5013591;28;20056;-70
2022/12/27 01:08:50;;;;;;;9.20;8.80;;;;;;;1.73;100.00;101039.22;5015688;28;20022;-69
2022/12/27 01:11:17;;;;;;;9.43;8.95;;;;;;;1.63;100.00;101052.09;5015963;28;20120;-69
2022/12/27 01:13:43;;;;;;;8.85;8.45;;;;;;;1.93;100.00;101057.84;5013563;28;20022;-69
2022/12/27 01:16:14;;;;;;;8.95;8.55;;;;;;;1.87;100.00;101047.78;5013329;28;20034;-70
2022/12/27 01:18:39;;;;;;;8.95;8.55;;;;;;;1.77;100.00;101053.78;5012656;28;20049;-69
2022/12/27 01:21:11;;;;;;;9.05;8.65;;;;;;;1.86;100.00;101056.59;5015817;28;20030;-70
2022/12/27 01:23:37;;;;;;;9.60;9.10;;;;;;;1.75;100.00;101046.00;5013762;28;20022;-70
2022/12/27 01:26:07;;;;;;;8.77;8.38;;;;;;;1.75;100.00;101051.25;5015384;28;20026;-70
2022/12/27 01:28:34;;;;;;;9.13;8.73;;;;;;;1.78;100.00;101055.44;5015352;28;20022;-69
2022/12/27 01:31:14;;;;;;;9.38;8.90;;;;;;;1.69;100.00;101046.47;5015693;28;20025;-69
2022/12/27 01:33:39;;;;;;;9.55;9.05;;;;;;;1.58;100.00;101031.47;5014241;28;20119;-69
2022/12/27 01:36:12;;;;;;;8.93;8.52;;;;;;;1.86;100.00;101051.34;5013632;28;20091;-69
2022/12/27 01:38:38;;;;;;;8.93;8.52;;;;;;;1.56;100.00;101033.38;5015137;28;20030;-69
2022/12/27 01:42:50;;;;;;;8.90;8.50;;;;;;;1.66;100.00;101031.78;5014981;28;20022;-69
2022/12/27 01:43:49;;;;;;;9.07;8.68;;;;;;;1.66;100.00;101034.41;5015117;28;20125;-69
2022/12/27 01:46:16;;;;;;;9.52;9.05;;;;;;;1.78;100.00;101029.28;5015143;28;20112;-69
2022/12/27 01:48:41;;;;;;;9.45;8.95;;;;;;;1.81;100.00;101023.84;5014688;28;20544;-70
2022/12/27 01:51:09;;;;;;;8.82;8.43;;;;;;;1.72;100.00;101025.31;5013660;28;20065;-69
2022/12/27 01:53:41;;;;;;;9.10;8.70;;;;;;;1.65;100.00;101026.69;5013961;28;20038;-69
2022/12/27 01:56:23;;;;;;;8.85;8.45;;;;;;;1.78;100.00;101030.13;5014926;28;20508;-69
2022/12/27 01:59:02;;;;;;;8.88;8.48;;;;;;;1.70;100.00;101023.75;5014902;28;20022;-70
2022/12/27 02:01:32;;;;;;;8.95;8.55;;;;;;;1.70;100.00;101016.75;5014944;28;20033;-68
2022/12/27 02:04:05;;;;;;;9.05;8.65;;;;;;;1.87;100.00;101018.19;5012637;28;20026;-69
2022/12/27 02:06:31;;;;;;;8.75;8.35;;;;;;;1.60;100.00;101020.91;5014029;28;20032;-69
2022/12/27 02:09:12;;;;;;;8.80;8.40;;;;;;;1.97;100.00;101013.97;5013466;28;20029;-69
2022/12/27 02:11:50;;;;;;;8.98;8.57;;;;;;;1.86;100.00;101004.28;5005068;28;20438;-69
2022/12/27 02:14:33;;;;;;;9.02;8.63;;;;;;;1.75;100.00;100996.31;5011506;28;20049;-69
2022/12/27 02:17:03;;;;;;;8.93;8.52;;;;;;;1.78;100.00;100988.28;5011220;28;20064;-69
2022/12/27 02:19:40;;;;;;;9.05;8.65;;;;;;;1.92;100.00;100984.69;5013314;28;20152;-69
2022/12/27 02:22:24;;;;;;;9.32;8.82;;;;;;;1.74;100.00;100986.81;5014531;28;20026;-70
2022/12/27 02:25:37;;;;;;;9.38;8.88;;;;;;;1.80;100.00;100975.91;5013500;28;20061;-70
2022/12/27 02:28:19;;;;;;;8.80;8.40;;;;;;;1.67;100.00;100975.09;4984732;28;20447;-68
2022/12/27 02:30:48;;;;;;;9.48;8.98;;;;;;;1.60;100.00;100979.91;5012994;28;20069;-70
2022/12/27 02:33:20;;;;;;;9.10;8.70;;;;;;;1.70;100.00;100982.75;5013342;28;20028;-69
2022/12/27 02:35:57;;;;;;;8.90;8.50;;;;;;;1.51;100.00;100977.94;5013997;28;20026;-69
2022/12/27 02:38:30;;;;;;;8.90;8.50;;;;;;;1.62;100.00;100975.44;5014154;28;20049;-69
2022/12/27 02:55:14;;;;;;;8.73;8.32;;;;;;;1.73;100.00;100951.13;5012048;28;20575;-70
2022/12/27 02:58:01;;;;;;;9.23;8.77;;;;;;;1.69;100.00;100952.31;5013736;28;20041;-68
2022/12/27 03:03:35;;;;;;;8.73;8.32;;;;;;;1.83;100.00;100941.69;5013600;28;20032;-69
2022/12/27 03:09:11;;;;;;;8.75;8.35;;;;;;;1.82;100.00;100937.41;5013263;28;20148;-68
2022/12/27 03:17:39;;;;;;;8.88;8.48;;;;;;;2.28;100.00;100931.50;5010750;28;20029;-68
2022/12/27 03:25:49;;;;;;;8.80;8.40;;;;;;;1.85;100.00;100929.34;5012547;28;20041;-68
2022/12/27 03:40:02;;;;;;;9.30;8.82;;;;;;;1.91;100.00;100897.53;5012917;28;20116;-68
2022/12/27 03:45:20;;;;;;;9.60;9.10;;;;;;;1.84;100.00;100901.53;5013144;28;20148;-69
2022/12/27 03:48:05;;;;;;;9.35;8.88;;;;;;;1.84;100.00;100906.75;5012634;28;20036;-69
2022/12/27 03:50:37;;;;;;;9.27;8.88;;;;;;;1.87;100.00;100906.53;5011826;28;20036;-69
2022/12/27 03:53:13;;;;;;;8.93;8.52;;;;;;;1.87;100.00;100911.75;5009071;28;20085;-70
2022/12/27 03:55:39;;;;;;;9.95;9.45;;;;;;;1.85;100.00;100903.19;5012271;28;20084;-69
2022/12/27 03:58:04;;;;;;;9.27;8.85;;;;;;;1.77;100.00;100897.69;5012358;28;20026;-68
2022/12/27 04:00:30;;;;;;;9.20;8.80;;;;;;;1.94;100.00;100906.94;5012540;28;20049;-69
2022/12/27 04:02:56;;;;;;;9.18;8.77;;;;;;;1.87;100.00;100905.69;5012434;28;20022;-69
2022/12/27 04:05:21;;;;;;;9.68;9.18;;;;;;;1.98;100.00;100910.16;5010676;28;20026;-69
2022/12/27 04:35:06;;;;;;;8.95;8.55;;;;;;;2.48;100.00;100920.41;5010756;28;20392;-68
2022/12/27 04:37:32;;;;;;;9.70;9.20;;;;;;;2.58;100.00;100914.50;5012160;28;20037;-70
2022/12/27 04:56:26;;;;;;;9.15;8.75;;;;;;;3.00;100.00;100934.84;4981428;28;20461;-69
2022/12/27 05:04:19;;;;;;;9.57;9.07;;;;;;;2.77;100.00;100918.22;5011227;28;20564;-69
2022/12/27 05:06:45;;;;;;;8.90;8.50;;;;;;;2.55;100.00;100917.34;5008390;28;20025;-69
2022/12/27 05:14:39;;;;;;;9.55;9.05;;;;;;;2.77;100.00;100888.59;5011081;28;20036;-69
2022/12/27 05:17:04;;;;;;;8.82;8.43;;;;;;;2.87;100.00;100894.81;5010923;28;20473;-70
2022/12/27 05:19:30;;;;;;;8.82;8.43;;;;;;;2.99;100.00;100906.13;5011732;28;20076;-70
2022/12/27 05:27:23;;;;;;;8.63;8.23;;;;;;;2.84;100.00;100904.69;5009719;28;20131;-69
2022/12/27 05:29:49;;;;;;;8.70;8.30;;;;;;;2.53;100.00;100904.34;5011506;28;20077;-69
2022/12/27 05:32:14;;;;;;;9.13;8.73;;;;;;;2.85;100.00;100893.25;5011389;28;20034;-70
2022/12/27 05:34:40;;;;;;;9.55;9.05;;;;;;;2.74;100.00;100904.53;5008991;28;20037;-69
2022/12/27 05:37:06;;;;;;;8.90;8.50;;;;;;;2.64;100.00;100911.41;5011581;28;20029;-69
2022/12/27 05:39:31;;;;;;;9.80;9.30;;;;;;;2.79;100.00;100905.00;5011196;28;20116;-70
2022/12/27 05:41:56;;;;;;;9.27;8.88;;;;;;;2.77;100.00;100899.06;5013061;28;20026;-69
2022/12/27 05:44:22;;;;;;;9.48;8.98;;;;;;;2.23;100.00;100894.34;5015092;28;20026;-70
2022/12/27 05:46:47;;;;;;;9.18;8.77;;;;;;;2.61;100.00;100896.75;5015132;28;20033;-68
2022/12/27 05:49:13;;;;;;;8.98;8.57;;;;;;;2.57;100.00;100887.47;5014011;28;20030;-70
2022/12/27 05:51:38;;;;;;;9.70;9.20;;;;;;;2.43;100.00;100892.91;5013857;28;20087;-69
2022/12/27 05:54:04;;;;;;;8.77;8.38;;;;;;;2.53;100.00;100886.03;5015049;28;20030;-70
2022/12/27 05:56:30;;;;;;;9.05;8.65;;;;;;;2.47;100.00;100876.84;5014914;28;20401;-71
2022/12/27 05:58:55;;;;;;;9.30;8.90;;;;;;;2.22;100.00;100885.69;5015193;28;20397;-69
2022/12/27 06:01:21;;;;;;;9.10;8.70;;;;;;;2.61;100.00;100888.06;5014202;28;20022;-70
2022/12/27 06:03:46;;;;;;;9.05;8.65;;;;;;;2.66;100.00;100885.94;5013201;28;20057;-69
2022/12/27 06:06:12;;;;;;;9.10;8.70;;;;;;;2.38;100.00;100877.53;5027771;28;20460;-70
2022/12/27 06:08:38;;;;;;;9.40;8.93;;;;;;;2.36;100.00;100887.28;5014194;28;20033;-70
2022/12/27 06:11:06;;;;;;;9.30;8.90;;;;;;;2.28;100.00;100892.25;5014679;28;20080;-70
2022/12/27 06:13:32;;;;;;;9.05;8.65;;;;;;;2.37;100.00;100894.19;5014414;28;20030;-70
2022/12/27 06:16:00;;;;;;;8.95;8.55;;;;;;;2.18;100.00;100893.84;5014818;28;20370;-70
2022/12/27 06:18:25;;;;;;;9.50;9.00;;;;;;;2.20;100.00;100889.31;5014501;28;20029;-69
2022/12/27 06:20:51;;;;;;;9.27;8.88;;;;;;;2.44;100.00;100900.63;5014487;28;20125;-70
2022/12/27 06:23:16;;;;;;;9.20;8.80;;;;;;;2.14;100.00;100898.50;5012820;28;20062;-69
2022/12/27 06:25:42;;;;;;;9.55;9.05;;;;;;;2.20;100.00;100899.78;5013543;28;20396;-70
2022/12/27 06:28:07;;;;;;;9.45;8.98;;;;;;;2.42;100.00;100896.44;5014314;28;20044;-69
2022/12/27 06:30:33;;;;;;;9.95;9.45;;;;;;;2.31;100.00;100888.56;5013943;28;20460;-69
2022/12/27 06:32:58;;;;;;;9.00;8.60;;;;;;;2.52;100.00;100899.25;5013998;28;20037;-69
2022/12/27 06:35:24;;;;;;;9.13;8.73;;;;;;;2.51;100.00;100895.78;5014042;28;20030;-69
2022/12/27 06:37:49;;;;;;;9.15;8.75;;;;;;;2.46;100.00;100897.91;5012710;28;20060;-69
2022/12/27 06:40:15;;;;;;;9.75;9.25;;;;;;;2.41;100.00;100903.47;5014092;28;20049;-69
2022/12/27 06:42:40;;;;;;;9.90;9.40;;;;;;;2.31;100.00;100902.47;5013436;28;20041;-69
2022/12/27 06:45:08;;;;;;;9.55;9.05;;;;;;;2.39;100.00;100909.78;5013316;28;20036;-69
2022/12/27 06:47:33;;;;;;;9.52;9.02;;;;;;;2.19;100.00;100904.19;5013918;28;20038;-70
2022/12/27 06:49:59;;;;;;;9.48;8.98;;;;;;;2.37;100.00;100909.91;5014025;28;20057;-70
2022/12/27 06:52:25;;;;;;;9.20;8.80;;;;;;;2.55;100.00;100904.25;5013532;28;20037;-69
2022/12/27 06:54:50;;;;;;;9.10;8.70;;;;;;;2.36;100.00;100900.38;5013805;28;20042;-70
2022/12/27 06:57:16;;;;;;;9.45;8.95;;;;;;;2.98;100.00;100894.81;5011696;28;20026;-70
2022/12/27 06:59:41;;;;;;;9.38;8.88;;;;;;;2.84;100.00;100897.66;5011842;28;20404;-70
2022/12/27 07:02:09;;;;;;;8.70;8.30;;;;;;;2.87;100.00;100894.81;5013424;28;20126;-69
2022/12/27 07:04:34;;;;;;;9.77;9.27;;;;;;;2.67;100.00;100892.84;5012390;28;20624;-69
2022/12/27 07:07:00;;;;;;;9.18;8.75;;;;;;;2.41;100.00;100892.16;5013180;28;20112;-70
2022/12/27 07:09:25;;;;;;;9.55;9.05;;;;;;;2.64;100.00;100903.53;5013508;28;20112;-69
2022/12/27 07:11:52;;;;;;;9.55;9.05;;;;;;;2.63;100.00;100896.63;5012937;28;20041;-70
2022/12/27 07:14:18;;;;;;;8.95;8.55;;;;;;;2.73;100.00;100908.13;5013320;28;20041;-69
2022/12/27 07:16:43;;;;;;;9.50;9.00;;;;;;;2.82;100.00;100896.09;5012528;28;20021;-70
2022/12/27 07:19:09;;;;;;;8.95;8.55;;;;;;;2.46;100.00;100898.72;5013449;28;20084;-69
2022/12/27 07:21:35;;;;;;;9.40;8.95;;;;;;;2.68;100.00;100891.91;5013048;28;20425;-70
2022/12/27 07:24:01;;;;;;;8.98;8.57;;;;;;;2.75;100.00;100890.50;5013448;28;20464;-70
2022/12/27 07:26:29;;;;;;;8.80;8.40;;;;;;;2.82;100.00;100891.69;5013167;28;20110;-69
2022/12/27 07:29:01;;;;;;;9.00;8.60;;;;;;;2.82;100.00;100893.50;5011837;28;20061;-71
2022/12/27 07:31:30;;;;;;;9.50;9.00;;;;;;;2.77;100.00;100891.19;5012619;28;20559;-71
2022/12/27 07:33:57;;;;;;;9.15;8.75;;;;;;;2.70;100.00;100890.00;5027288;28;20056;-70
2022/12/27 07:36:28;;;;;;;8.80;8.40;;;;;;;2.86;100.00;100887.88;5012922;28;20057;-70
2022/12/27 07:38:54;;;;;;;9.30;8.85;;;;;;;2.80;100.00;100880.50;5013048;28;20030;-70
2022/12/27 07:41:20;;;;;;;8.95;8.55;;;;;;;3.20;100.00;100882.69;5012615;28;20113;-69
2022/12/27 07:43:46;;;;;;;9.10;8.70;;;;;;;3.09;100.00;100904.50;5012940;28;20477;-71
2022/12/27 07:46:16;;;;;;;8.68;8.27;;;;;;;3.05;100.00;100908.28;5012852;28;20389;-70
2022/12/27 07:48:43;;;;;;;8.95;8.55;;;;;;;3.26;100.00;100892.72;5012840;28;20025;-69
2022/12/27 07:51:09;;;;;;;9.00;8.60;;;;;;;3.36;100.00;100890.19;5012514;28;20113;-68
2022/12/27 07:53:35;;;;;;;9.20;8.80;;;;;;;3.29;100.00;100897.72;5012537;28;20021;-70
2022/12/27 07:56:06;;;;;;;8.80;8.40;;;;;;;3.23;100.00;100908.66;5010498;28;20128;-70
2022/12/27 07:58:35;;;;;;;9.63;9.13;;;;;;;3.54;100.00;100907.97;5012332;28;20025;-69
2022/12/27 08:01:03;;;;;;;9.45;8.95;;;;;;;3.17;100.00;100917.84;5011322;28;20124;-70
2022/12/27 08:03:28;;;;;;;8.80;8.40;;;;;;;3.54;100.00;100918.47;5012705;28;20397;-70
2022/12/27 08:05:54;;;;;;;9.18;8.77;;;;;;;3.41;100.00;100912.50;5011075;28;20029;-69
2022/12/27 08:08:22;;;;;;;9.18;8.77;;;;;;;3.19;100.00;100913.31;5012430;28;20555;-69
2022/12/27 08:10:48;;;;;;;9.68;9.18;;;;;;;3.60;100.00;100910.13;5010511;28;20497;-69
2022/12/27 08:13:14;;;;;;;9.50;9.00;;;;;;;3.43;100.00;100920.25;5011937;28;20077;-68
2022/12/27 08:15:40;;;;;;;9.57;9.07;;;;;;;3.77;100.00;100926.31;5012353;28;20029;-69
2022/12/27 08:18:06;;;;;;;9.27;8.82;;;;;;;3.44;100.00;100933.22;5011136;28;20030;-68
2022/12/27 08:20:31;;;;;;;9.55;9.05;;;;;;;3.95;100.00;100926.63;5012000;28;20080;-69
2022/12/27 08:22:57;;;;;;;9.82;9.32;;;;;;;4.20;100.00;100925.53;5013805;28;20029;-70
2022/12/27 08:25:23;;;;;;;8.82;8.43;;;;;;;3.62;100.00;100923.13;5010143;28;20049;-68
2022/12/27 08:27:48;;;;;;;8.60;8.20;;;;;;;3.40;100.00;100929.19;5012170;28;20536;-69
2022/12/27 08:30:14;;;;;;;9.57;9.07;;;;;;;3.69;100.00;100937.41;5012387;28;20033;-69
2022/12/27 08:32:39;;;;;;;9.40;8.93;;;;;;;3.90;100.00;100942.78;5011744;28;20033;-69
2022/12/27 08:35:05;;;;;;;9.27;8.88;;;;;;;4.22;100.00;100949.88;5010802;28;20062;-69
2022/12/27 08:37:31;;;;;;;10.07;9.57;;;;;;;3.85;100.00;100937.88;5009819;28;20041;-69
2022/12/27 08:39:56;;;;;;;8.95;8.55;;;;;;;3.60;100.00;100933.72;5011252;28;20029;-69
2022/12/27 08:42:21;;;;;;;9.00;8.60;;;;;;;3.50;100.00;100927.50;5012237;28;20029;-69
2022/12/27 08:44:47;;;;;;;9.25;8.85;;;;;;;3.56;100.00;100920.97;5012017;28;20025;-69
2022/12/27 08:47:12;;;;;;;9.05;8.65;;;;;;;3.70;100.00;100918.09;5011894;28;20032;-69
2022/12/27 08:49:38;;;;;;;9.35;8.90;;;;;;;3.87;100.00;100914.13;5010584;28;20080;-69
2022/12/27 08:52:04;;;;;;;9.13;8.73;;;;;;;3.96;100.00;100907.31;5011671;28;20037;-69
2022/12/27 08:54:29;;;;;;;10.15;9.65;;;;;;;4.01;100.00;100910.41;5011500;28;20029;-68
2022/12/27 08:56:55;;;;;;;8.98;8.57;;;;;;;3.99;100.00;100902.66;5011313;28;20034;-70
2022/12/27 08:59:20;;;;;;;10.10;9.60;;;;;;;4.10;100.00;100905.25;5011796;28;20025;-69
2022/12/27 09:01:46;;;;;;;9.65;9.15;;;;;;;4.09;100.00;100906.19;5011614;28;20528;-69
2022/12/27 09:04:11;;;;;;;9.70;9.20;;;;;;;4.16;100.00;100902.13;5010924;28;20049;-70
2022/12/27 09:06:38;;;;;;;9.80;9.30;;;;;;;4.24;100.00;100892.78;5011435;28;20032;-70
2022/12/27 09:09:04;;;;;;;8.95;8.55;;;;;;;4.13;100.00;100893.69;5010377;28;20113;-70
2022/12/27 09:11:32;;;;;;;9.13;8.73;;;;;;;4.11;100.00;100891.19;5011575;28;20052;-70
2022/12/27 09:14:03;;;;;;;9.68;9.18;;;;;;;4.34;100.00;100883.22;5010855;28;20030;-70
2022/12/27 09:16:29;;;;;;;9.00;8.60;;;;;;;3.73;100.00;100882.91;5004260;28;20049;-69
2022/12/27 09:18:57;;;;;;;9.05;8.65;;;;;;;4.52;100.00;100892.19;5015527;28;20497;-70
2022/12/27 09:21:25;;;;;;;8.70;8.30;;;;;;;3.98;100.00;100884.41;5013353;28;20072;-70
2022/12/27 09:23:51;;;;;;;9.10;8.70;;;;;;;4.24;100.00;100882.28;5012846;28;20026;-70
2022/12/27 09:26:19;;;;;;;9.73;9.23;;;;;;;4.25;100.00;100876.91;5011443;28;20037;-70
2022/12/27 09:28:46;;;;;;;8.93;8.52;;;;;;;4.28;100.00;100875.84;5012933;28;20156;-70
2022/12/27 09:31:15;;;;;;;9.85;9.35;;;;;;;3.69;100.00;100878.88;5014481;28;20107;-69
2022/12/27 09:33:41;;;;;;;9.20;8.77;;;;;;;3.91;100.00;100883.25;5014160;28;20034;-69
2022/12/27 09:36:12;;;;;;;8.80;8.40;;;;;;;4.07;100.00;100875.78;5015143;28;20022;-69
2022/12/27 09:38:39;;;;;;;9.10;8.70;;;;;;;4.08;100.00;100862.53;5015126;28;20448;-70
2022/12/27 09:41:12;;;;;;;8.80;8.40;;;;;;;4.21;100.00;100870.25;5015128;28;20029;-70
2022/12/27 09:43:43;;;;;;;9.45;8.98;;;;;;;3.89;100.00;100867.59;5015021;28;20500;-70
2022/12/27 09:46:19;;;;;;;9.60;9.10;;;;;;;3.64;100.00;100860.03;5012694;28;20036;-70
2022/12/27 09:48:46;;;;;;;9.45;8.98;;;;;;;4.07;100.00;100858.25;5010820;28;20033;-70
2022/12/27 09:51:22;;;;;;;9.48;9.00;;;;;;;4.89;100.00;100855.78;5014733;28;20025;-70
2022/12/27 09:53:57;;;;;;;8.90;8.50;;;;;;;4.54;100.00;100855.28;5014701;28;20037;-70
2022/12/27 09:56:26;;;;;;;9.10;8.70;;;;;;;4.29;100.00;100844.19;5014572;28;20077;-70
2022/12/27 09:58:55;;;;;;;9.75;9.25;;;;;;;5.66;100.00;100841.28;5013228;28;20362;-69
2022/12/27 10:01:36;;;;;;;9.43;8.93;;;;;;;5.27;100.00;100839.34;5013035;28;20125;-70
2022/12/27 10:04:03;;;;;;;9.40;8.93;;;;;;;4.78;100.00;100841.91;5015574;28;20029;-71
2022/12/27 10:06:47;;;;;;;9.32;8.90;;;;;;;4.87;100.00;100841.94;5013697;28;20026;-68
2022/12/27 10:09:43;;;;;;;9.57;9.07;;;;;;;4.98;100.00;100841.03;5014570;28;20038;-70
2022/12/27 10:12:48;;;;;;;9.90;9.40;;;;;;;5.43;100.00;100835.38;5014435;28;20034;-70
2022/12/27 10:15:47;;;;;;;8.98;8.57;;;;;;;5.11;100.00;100838.19;4983762;28;20103;-71
2022/12/27 10:18:30;;;;;;;9.98;9.48;;;;;;;5.35;100.00;100851.00;5009211;28;20060;-69
2022/12/27 10:21:14;;;;;;;9.80;9.30;;;;;;;5.22;100.00;100846.84;5012567;28;20025;-70
2022/12/27 10:23:46;;;;;;;10.48;9.88;;;;;;;5.42;100.00;100847.72;5011215;28;20452;-69
2022/12/27 10:26:17;;;;;;;10.05;9.55;;;;;;;5.80;100.00;100852.28;5012753;28;20030;-70
2022/12/27 10:28:45;;;;;;;9.80;9.30;;;;;;;6.01;100.00;100853.97;5013434;28;20034;-69
2022/12/27 10:31:15;;;;;;;9.70;9.20;;;;;;;5.83;100.00;100846.72;5012129;28;20025;-70
2022/12/27 10:33:43;;;;;;;10.20;9.70;;;;;;;5.25;100.00;100840.47;5011847;28;20056;-70
2022/12/27 10:36:13;;;;;;;9.13;8.73;;;;;;;5.72;100.00;100838.94;5014500;28;20547;-70
2022/12/27 10:38:38;;;;;;;10.65;10.07;;;;;;;5.92;100.00;100841.63;5013702;28;20141;-70
2022/12/27 10:41:30;;;;;;;10.02;9.52;;;;;;;6.12;100.00;100834.59;5013214;28;20117;-70
2022/12/27 10:43:55;;;;;;;9.60;9.10;;;;;;;5.30;100.00;100835.66;5010982;28;20028;-70
2022/12/27 10:46:24;;;;;;;9.10;8.70;;;;;;;6.47;100.00;100839.31;5013663;28;20026;-70
2022/12/27 10:49:00;;;;;;;10.15;9.65;;;;;;;5.95;100.00;100841.34;5013683;28;20121;-69
2022/12/27 10:51:36;;;;;;;9.80;9.30;;;;;;;6.78;100.00;100837.28;5011316;28;20029;-70
2022/12/27 10:54:10;;;;;;;9.57;9.10;;;;;;;6.14;100.00;100838.75;5012457;28;20149;-69
2022/12/27 10:56:38;;;;;;;10.00;9.50;;;;;;;6.08;100.00;100820.84;5012444;28;20042;-69
2022/12/27 10:59:06;;;;;;;10.27;9.77;;;;;;;6.30;100.00;100815.28;5011056;28;20079;-69
2022/12/27 11:01:32;;;;;;;9.80;9.30;;;;;;;7.06;100.00;100822.38;5012969;28;20497;-70
2022/12/27 11:04:11;;;;;;;10.07;9.57;;;;;;;7.26;100.00;100823.09;5014370;28;20029;-70
2022/12/27 11:06:38;;;;;;;10.30;9.80;;;;;;;6.66;100.00;100828.72;5012308;28;20036;-70
2022/12/27 11:09:40;;;;;;;9.75;9.25;;;;;;;6.61;100.00;100823.03;5013207;28;20041;-70
2022/12/27 11:12:30;;;;;;;9.82;9.32;;;;;;;7.02;100.00;100823.63;4979401;28;20045;-70
2022/12/27 11:15:05;;;;;;;9.60;9.10;;;;;;;6.84;100.00;100826.19;5011813;28;20029;-70
2022/12/27 11:17:30;;;;;;;;;;;;;;;8.17;100.00;100823.94;5013370;28;20034;-68
2022/12/27 11:19:59;;;;;;;9.10;8.70;;;;;;;8.55;100.00;100822.78;5013450;28;19920;-70
2022/12/27 11:22:25;;;;;;;9.07;8.68;;;;;;;8.85;100.00;100808.25;5010833;28;20034;-69
2022/12/27 11:24:59;;;;;;;8.95;8.55;;;;;;;8.47;100.00;100812.97;5013164;28;20030;-69
2022/12/27 11:27:28;;;;;;;9.00;8.60;;;;;;;7.43;100.00;100814.41;5013098;28;20497;-69
2022/12/27 11:29:57;;;;;;;10.05;9.55;;;;;;;7.09;100.00;100816.78;5012220;28;20456;-70
2022/12/27 11:32:23;;;;;;;9.18;8.77;;;;;;;7.13;100.00;100831.38;5012179;28;20065;-69
2022/12/27 11:34:52;;;;;;;9.40;9.00;;;;;;;7.23;100.00;100833.97;5012836;28;20026;-70
2022/12/27 11:37:21;;;;;;;9.75;9.25;;;;;;;6.72;100.00;100827.31;5013600;28;20117;-68
2022/12/27 11:39:53;;;;;;;10.52;10.02;;;;;;;7.06;100.00;100831.09;5009816;28;20053;-69
2022/12/27 11:42:31;;;;;;;10.27;9.77;;;;;;;6.61;100.00;100829.16;5007302;28;20058;-71
2022/12/27 11:45:22;;;;;;;9.07;8.68;;;;;;;7.03;100.00;100827.91;5013034;28;20026;-70
2022/12/27 11:48:01;;;;;;;10.00;9.50;;;;;;;7.03;100.00;100825.28;5010368;28;20021;-69
2022/12/27 11:50:26;;;;;;;9.43;9.02;;;;;;;7.02;100.00;100813.06;5011724;28;20391;-70
2022/12/27 11:53:08;;;;;;;9.20;8.80;;;;;;;6.59;100.00;100824.97;5012712;28;20022;-71
2022/12/27 11:55:52;;;;;;;10.27;9.77;;;;;;;7.10;100.00;100826.34;5010663;28;20041;-69
2022/12/27 11:58:54;;;;;;;9.30;8.90;;;;;;;7.64;100.00;100822.09;5010820;28;20054;-70
2022/12/27 12:01:28;;;;;;;9.25;8.85;;;;;;;7.33;100.00;100818.91;5012586;28;20025;-70
2022/12/27 12:04:13;;;;;;;9.70;9.20;;;;;;;7.14;100.00;100818.03;5012950;28;20029;-70
2022/12/27 12:07:14;;;;;;;9.60;9.18;;;;;;;7.22;100.00;100822.56;5011514;28;20363;-70
2022/12/27 12:10:07;;;;;;;9.13;8.73;;;;;;;7.23;100.00;100818.94;5010269;28;20029;-71
2022/12/27 12:12:56;;;;;;;9.23;8.82;;;;;;;7.46;100.00;100812.28;5011565;28;20034;-69
2022/12/27 12:15:43;;;;;;;9.73;9.23;;;;;;;8.31;100.00;100821.56;5009941;28;20080;-70
2022/12/27 12:18:21;;;;;;;9.32;8.93;;;;;;;7.60;100.00;100808.34;5010122;28;20136;-69
2022/12/27 12:21:04;;;;;;;9.65;9.18;;;;;;;7.90;100.00;100814.25;5011970;28;20053;-70
2022/12/27 12:23:56;;;;;;;9.50;9.10;;;;;;;7.91;100.00;100814.09;5010197;28;20033;-70
2022/12/27 12:26:24;;;;;;;9.20;8.80;;;;;;;8.14;100.00;100816.28;5006296;28;20095;-70
2022/12/27 12:29:20;;;;;;;9.57;9.10;;;;;;;8.14;100.00;100821.56;5009763;28;20047;-69
2022/12/27 12:32:08;;;;;;;9.07;8.68;;;;;;;7.71;100.00;100820.47;5010796;28;20392;-69
2022/12/27 12:34:52;;;;;;;9.30;8.90;;;;;;;7.69;100.00;100830.38;5006289;28;20040;-70
2022/12/27 12:37:26;;;;;;;9.23;8.83;;;;;;;7.73;100.00;100837.03;5010620;28;20029;-69
2022/12/27 12:40:25;;;;;;;9.57;9.13;;;;;;;7.52;100.00;100841.75;5007981;28;20057;-70
2022/12/27 12:43:28;;;;;;;9.35;8.95;;;;;;;7.80;100.00;100846.03;5010887;28;20033;-70
2022/12/27 12:46:05;;;;;;;10.13;9.63;;;;;;;7.94;100.00;100844.69;5010895;28;20021;-70
2022/12/27 12:48:49;;;;;;;9.30;8.90;;;;;;;7.95;100.00;100843.69;5011814;28;20029;-71
2022/12/27 12:51:14;;;;;;;9.00;8.60;;;;;;;7.99;100.00;100837.13;5010908;28;20043;-71
2022/12/27 12:53:58;;;;;;;10.30;9.80;;;;;;;7.78;100.00;100840.03;5011486;28;20013;-71
2022/12/27 12:56:26;;;;;;;9.15;8.75;;;;;;;7.43;100.00;100841.63;5008871;28;20050;-70
2022/12/27 12:58:59;;;;;;;9.45;9.05;;;;;;;7.25;100.00;100850.47;5026632;28;20029;-71
2022/12/27 13:01:51;;;;;;;9.35;8.95;;;;;;;7.28;100.00;100848.38;5011374;28;20477;-71
2022/12/27 13:04:44;;;;;;;9.20;8.80;;;;;;;7.38;100.00;100859.72;5011776;28;20125;-70
2022/12/27 13:07:26;;;;;;;10.18;9.68;;;;;;;7.28;100.00;100924.91;5009500;28;21111;-69
2022/12/27 13:10:30;;;;;;;9.30;8.90;;;;;;;7.27;100.00;100969.88;5009131;28;20565;-69
2022/12/27 13:13:12;;;;;;;9.38;8.98;;;;;;;7.34;100.00;100974.44;5023832;28;20029;-69
2022/12/27 13:16:09;;;;;;;10.38;9.88;;;;;;;7.45;100.00;100984.84;5010968;28;20032;-69
2022/12/27 13:18:44;;;;;;;9.65;9.15;;;;;;;7.61;100.00;101008.00;5004389;28;20129;-69
2022/12/27 13:21:20;;;;;;;;;;;;;;;7.62;100.00;101022.03;5011130;28;20496;-70
2022/12/27 13:23:54;;;;;;;9.32;8.88;;;;;;;7.74;100.00;101023.53;5011438;28;19925;-70
2022/12/27 13:27:01;;;;;;;9.40;8.95;;;;;;;7.65;100.00;101027.06;5011386;28;20026;-69
2022/12/27 13:29:53;;;;;;;9.10;8.70;;;;;;;7.70;100.00;101030.91;4989356;28;20046;-69